createdAt,value
2023-02-06T00:00:01.623Z,50.26790509943799
2023-02-06T00:15:01.323Z,50.34293922611524
2023-02-06T00:30:01.066Z,50.24019629834896
2023-02-06T00:45:01.769Z,49.677040822068406
2023-02-06T01:00:01.444Z,48.93929364187169
2023-02-06T01:15:01.137Z,49.5132819188159
2023-02-06T01:30:02.152Z,49.937140519149416
2023-02-06T01:45:01.870Z,49.275165249374176
2023-02-06T02:00:01.870Z,49.44932866141327
2023-02-06T02:15:02.546Z,49.783499381601
2023-02-06T02:30:02.279Z,50.89186204347941
2023-02-06T02:45:02.031Z,49.55382178192165
2023-02-06T03:00:01.706Z,48.37188775313653
2023-02-06T03:15:02.365Z,49.23374003909481
2023-02-06T03:30:02.059Z,48.149164608779664
2023-02-06T03:45:01.772Z,48.44061475629348
2023-02-06T04:00:02.424Z,47.277807014840924
2023-02-06T04:15:02.123Z,47.03721803582354
2023-02-06T04:30:01.902Z,46.290130312213336
2023-02-06T04:45:01.632Z,46.00921325149921
2023-02-06T05:00:02.297Z,46.15965019987318
2023-02-06T05:15:01.966Z,46.42144689789666
2023-02-06T05:30:01.881Z,46.51403044730153
2023-02-06T05:45:01.580Z,46.875595833398286
2023-02-06T06:00:02.282Z,46.79272810505406
2023-02-06T06:15:01.957Z,46.98868267960864
2023-02-06T06:30:01.866Z,47.876092250044096
2023-02-06T06:45:01.644Z,47.50157176349676
2023-02-06T07:00:02.487Z,47.15884403115901
2023-02-06T07:15:02.225Z,47.41601458360247
2023-02-06T07:30:02.004Z,46.648276470512926
2023-02-06T07:45:01.720Z,46.45384299049025
2023-02-06T08:00:01.455Z,45.6089174364702
2023-02-06T08:15:02.192Z,45.943262408121335
2023-02-06T08:30:01.900Z,44.921805028441156
2023-02-06T08:45:01.638Z,45.58363264067165
2023-02-06T09:00:01.492Z,45.81258885454623
2023-02-06T09:15:02.351Z,44.82646475673977
2023-02-06T09:30:02.178Z,44.49205304779962
2023-02-06T09:45:01.910Z,43.959395924974444
2023-02-06T10:00:01.963Z,43.866939439533596
2023-02-06T10:15:01.742Z,44.17545104020914
2023-02-06T10:30:02.476Z,43.525047245840796
2023-02-06T10:45:17.485Z,44.26248796134762
2023-02-06T11:00:02.093Z,44.151688863947875
2023-02-06T11:15:01.867Z,43.51799507531548
2023-02-06T11:30:01.596Z,41.964484274896726
2023-02-06T11:45:02.292Z,41.307902977323884
2023-02-06T12:00:02.081Z,42.896233140360785
2023-02-06T12:15:18.221Z,40.77456197399538
2023-02-06T12:30:02.388Z,42.496369956482326
2023-02-06T12:45:02.140Z,42.916855456192515
2023-02-06T13:00:01.796Z,43.49538059086933
2023-02-06T13:15:01.530Z,44.61222810803056
2023-02-06T13:30:02.204Z,42.88730210392719
2023-02-06T13:45:02.012Z,42.5833786966445
2023-02-06T14:00:01.689Z,44.65358842552703
2023-02-06T14:15:02.372Z,41.6514166774755
2023-02-06T14:30:02.124Z,43.10587863967516
2023-02-06T14:45:01.819Z,43.7550709818809
2023-02-06T15:00:01.513Z,39.971123216815094
2023-02-06T15:15:02.235Z,40.986178135892146
2023-02-06T15:30:01.942Z,42.35112480700254
2023-02-06T15:45:01.637Z,43.50565630380265
2023-02-06T16:00:02.316Z,43.42544935851535
2023-02-06T16:15:02.159Z,45.76799669601876
2023-02-06T16:30:01.871Z,46.913251006948215
2023-02-06T16:45:01.593Z,47.2507411759193
2023-02-06T17:00:02.288Z,48.19466173139612
2023-02-06T17:15:01.958Z,47.22397742022145
2023-02-06T17:30:01.688Z,46.73604416561709
2023-02-06T17:45:01.391Z,45.78422187307489
2023-02-06T18:00:02.379Z,45.4195507592456
2023-02-06T18:15:02.070Z,47.047256898876135
2023-02-06T18:30:01.796Z,48.42724905226025
2023-02-06T18:45:04.131Z,48.77503085187213
2023-02-06T19:00:02.077Z,49.498678485885144
2023-02-06T19:15:01.744Z,48.651006709815604
2023-02-06T19:30:02.431Z,48.590743486299736
2023-02-06T19:45:02.101Z,48.894246244194406
2023-02-06T20:00:01.773Z,49.016199677121385
2023-02-06T20:15:01.499Z,50.452076537039375
2023-02-06T20:30:02.255Z,49.82295432314343
2023-02-06T20:45:01.936Z,49.738233443380395
2023-02-06T21:00:01.618Z,48.96928199278685
2023-02-06T21:15:02.295Z,48.882506995156554
2023-02-06T21:30:02.005Z,48.95244272756657
2023-02-06T21:45:01.688Z,48.90125852910576
2023-02-06T22:00:02.440Z,48.57152227418714
2023-02-06T22:15:02.111Z,48.425843051044446
2023-02-06T22:30:01.771Z,48.525560043147976
2023-02-06T22:45:01.440Z,48.378409642117376
2023-02-06T23:00:02.163Z,48.440533215026676
2023-02-06T23:15:01.866Z,48.787641451935166
2023-02-06T23:30:01.662Z,48.81403353946062
2023-02-06T23:45:01.383Z,49.160348513904054
